createdAt,value
2018-04-29T00:04:48.842Z,85.60
2018-04-29T00:09:52.209Z,85.70
2018-04-29T00:14:55.444Z,85.90
2018-04-29T00:19:59.065Z,85.20
2018-04-29T00:25:02.764Z,85.10
2018-04-29T00:30:05.974Z,85.10
2018-04-29T00:35:09.195Z,84.90
2018-04-29T00:40:12.813Z,84.10
2018-04-29T00:45:16.491Z,83.70
2018-04-29T00:50:19.814Z,83.60
2018-04-29T00:55:23.103Z,83.10
2018-04-29T01:00:26.326Z,83.50
2018-04-29T01:05:29.559Z,84.00
2018-04-29T01:10:32.941Z,84.00
2018-04-29T01:15:36.150Z,83.20
2018-04-29T01:20:39.454Z,82.50
2018-04-29T01:25:42.675Z,82.00
2018-04-29T01:30:46.287Z,82.30
2018-04-29T01:35:49.681Z,82.30
2018-04-29T01:40:52.898Z,82.70
2018-04-29T01:45:56.528Z,83.90
2018-04-29T01:50:59.746Z,83.80
2018-04-29T01:56:02.975Z,83.80
2018-04-29T02:01:06.306Z,84.10
2018-04-29T02:06:10.141Z,85.90
2018-04-29T02:11:13.375Z,86.30
2018-04-29T02:16:16.598Z,86.50
2018-04-29T02:21:19.842Z,86.70
2018-04-29T02:26:23.493Z,87.70
2018-04-29T02:31:27.200Z,88.40
2018-04-29T02:36:30.372Z,88.40
2018-04-29T02:41:33.679Z,88.80
2018-04-29T02:46:37.015Z,89.20
2018-04-29T02:51:40.235Z,90.00
2018-04-29T02:56:43.843Z,89.10
2018-04-29T03:01:47.454Z,87.00
2018-04-29T03:06:51.118Z,85.00
2018-04-29T03:11:54.335Z,85.00
2018-04-29T03:16:57.783Z,84.80
2018-04-29T03:22:01.395Z,84.50
2018-04-29T03:27:04.642Z,84.50
2018-04-29T03:32:07.866Z,84.90
2018-04-29T03:37:11.089Z,85.20
2018-04-29T03:42:14.318Z,85.30
2018-04-29T03:47:17.548Z,85.80
2018-04-29T03:52:20.793Z,85.90
2018-04-29T03:57:35.821Z,86.30
2018-04-29T04:02:51.413Z,86.40
2018-04-29T04:07:54.603Z,86.30
2018-04-29T04:12:57.937Z,86.00
2018-04-29T04:18:01.787Z,86.00
2018-04-29T04:23:05.022Z,86.00
2018-04-29T04:28:08.252Z,86.00
2018-04-29T04:33:11.467Z,86.10
2018-04-29T04:38:15.091Z,87.90
2018-04-29T04:43:18.723Z,86.90
2018-04-29T04:48:21.944Z,86.90
2018-04-29T04:53:25.191Z,85.60
2018-04-29T04:58:28.428Z,85.20
2018-04-29T05:03:31.657Z,84.70
2018-04-29T05:08:34.891Z,84.80
2018-04-29T05:13:38.221Z,85.20
2018-04-29T05:18:41.911Z,86.00
2018-04-29T05:23:45.245Z,85.90
2018-04-29T05:28:48.460Z,86.10
2018-04-29T05:33:52.096Z,86.30
2018-04-29T05:38:55.338Z,86.30
2018-04-29T05:43:58.584Z,86.30
2018-04-29T05:49:02.219Z,86.90
2018-04-29T05:54:05.448Z,86.90
2018-04-29T05:59:08.662Z,87.00
2018-04-29T06:04:11.925Z,86.70
2018-04-29T06:09:15.553Z,84.80
2018-04-29T06:14:18.829Z,84.80
2018-04-29T06:19:22.958Z,83.80
2018-04-29T06:24:26.204Z,83.20
2018-04-29T06:29:29.418Z,81.90
2018-04-29T06:34:32.664Z,80.70
2018-04-29T06:39:35.995Z,80.90
2018-04-29T06:44:39.627Z,80.20
2018-04-29T06:49:42.863Z,80.20
2018-04-29T06:54:46.122Z,79.20
2018-04-29T06:59:50.093Z,78.40
2018-04-29T07:04:53.330Z,78.40
2018-04-29T07:09:56.554Z,78.30
2018-04-29T07:15:00.247Z,75.60
2018-04-29T07:20:03.536Z,75.60
2018-04-29T07:25:06.734Z,76.20
2018-04-29T07:30:10.116Z,75.20
2018-04-29T07:35:13.392Z,75.70
2018-04-29T07:40:16.686Z,76.50
2018-04-29T07:45:20.020Z,77.70
2018-04-29T07:50:23.630Z,79.40
2018-04-29T07:55:27.252Z,77.10
2018-04-29T08:00:31.469Z,77.00
2018-04-29T08:05:35.160Z,77.40
2018-04-29T08:10:38.463Z,77.40
2018-04-29T08:15:41.917Z,77.30
2018-04-29T08:20:45.226Z,77.10
2018-04-29T08:25:48.722Z,76.30
2018-04-29T08:30:51.987Z,76.20
2018-04-29T08:35:55.227Z,74.20
2018-04-29T08:40:58.457Z,72.70
2018-04-29T08:46:02.162Z,71.30
2018-04-29T08:51:05.793Z,70.90
2018-04-29T08:56:09.130Z,70.90
2018-04-29T09:01:12.469Z,70.70
2018-04-29T09:06:15.727Z,71.30
2018-04-29T09:11:18.942Z,72.00
2018-04-29T09:16:23.049Z,73.30
2018-04-29T09:21:26.332Z,72.10
2018-04-29T09:26:29.945Z,69.10
2018-04-29T09:31:33.382Z,69.20
2018-04-29T09:36:36.613Z,70.60
2018-04-29T09:41:39.826Z,70.00
2018-04-29T09:46:43.188Z,70.70
2018-04-29T09:51:46.994Z,69.50
2018-04-29T09:56:50.215Z,69.50
2018-04-29T10:01:53.876Z,66.00
2018-04-29T10:06:57.126Z,66.00
2018-04-29T10:12:00.852Z,63.30
2018-04-29T10:17:04.149Z,63.30
2018-04-29T10:22:07.880Z,60.10
2018-04-29T10:27:11.510Z,60.50
2018-04-29T10:32:14.795Z,60.50
2018-04-29T10:37:18.482Z,60.40
2018-04-29T10:42:21.810Z,60.40
2018-04-29T10:47:25.040Z,60.40
2018-04-29T10:52:28.397Z,59.20
2018-04-29T10:57:31.661Z,58.70
2018-04-29T11:02:35.038Z,58.80
2018-04-29T11:07:38.983Z,60.40
2018-04-29T11:12:42.996Z,61.00
2018-04-29T11:17:46.636Z,62.20
2018-04-29T11:22:49.860Z,62.10
2018-04-29T11:27:53.082Z,61.40
2018-04-29T11:32:56.321Z,64.90
2018-04-29T11:38:00.158Z,60.30
2018-04-29T11:43:03.796Z,60.50
2018-04-29T11:48:07.013Z,60.50
2018-04-29T11:53:10.278Z,60.40
2018-04-29T11:58:14.571Z,56.10
2018-04-29T12:03:17.906Z,56.10
2018-04-29T12:08:21.142Z,53.10
2018-04-29T12:13:24.360Z,49.20
2018-04-29T12:18:27.599Z,46.70
2018-04-29T12:23:30.810Z,46.10
2018-04-29T12:28:34.136Z,47.40
2018-04-29T12:33:37.772Z,45.20
2018-04-29T12:38:40.990Z,45.20
2018-04-29T12:43:44.218Z,46.30
2018-04-29T12:48:47.450Z,46.10
2018-04-29T12:53:50.667Z,45.00
2018-04-29T12:58:53.922Z,45.10
2018-04-29T13:03:57.193Z,45.20
2018-04-29T13:09:00.811Z,44.60
2018-04-29T13:14:04.519Z,45.80
2018-04-29T13:19:08.165Z,44.90
2018-04-29T13:24:11.467Z,45.00
2018-04-29T13:29:14.825Z,45.20
2018-04-29T13:34:18.005Z,45.30
2018-04-29T13:39:21.268Z,44.10
2018-04-29T13:44:25.081Z,45.10
2018-04-29T13:49:28.731Z,46.90
2018-04-29T13:54:32.004Z,46.90
2018-04-29T13:59:35.823Z,49.40
2018-04-29T14:04:39.149Z,49.40
2018-04-29T14:09:42.416Z,49.30
2018-04-29T14:14:45.849Z,50.20
2018-04-29T14:19:49.491Z,50.50
2018-04-29T14:24:52.675Z,50.20
2018-04-29T14:29:56.310Z,49.00
2018-04-29T14:34:59.554Z,49.00
2018-04-29T14:40:03.221Z,50.70
2018-04-29T14:45:06.878Z,50.60
2018-04-29T14:50:10.233Z,50.60
2018-04-29T14:55:13.539Z,49.20
2018-04-29T15:00:16.795Z,48.50
2018-04-29T15:05:20.019Z,47.90
2018-04-29T15:10:23.688Z,47.20
2018-04-29T15:15:27.112Z,46.30
2018-04-29T15:20:30.350Z,46.10
2018-04-29T15:25:33.648Z,46.00
2018-04-29T15:30:37.220Z,45.10
2018-04-29T15:35:40.974Z,46.40
2018-04-29T15:40:44.586Z,46.40
2018-04-29T15:45:47.838Z,46.70
2018-04-29T15:50:51.161Z,46.20
2018-04-29T15:55:54.428Z,45.40
2018-04-29T16:00:57.648Z,45.20
2018-04-29T16:06:00.881Z,45.60
2018-04-29T16:11:04.486Z,45.00
2018-04-29T16:16:07.716Z,45.00
2018-04-29T16:21:10.971Z,44.50
2018-04-29T16:26:14.806Z,47.40
2018-04-29T16:31:18.019Z,50.50
2018-04-29T16:36:21.347Z,52.30
2018-04-29T16:41:25.653Z,53.40
2018-04-29T16:46:30.615Z,53.40
2018-04-29T16:51:34.945Z,59.60
2018-04-29T16:56:51.667Z,62.20
2018-04-29T17:02:00.054Z,62.20
2018-04-29T17:07:03.332Z,63.90
2018-04-29T17:12:06.576Z,63.70
2018-04-29T17:17:09.838Z,62.10
2018-04-29T17:22:13.064Z,61.40
2018-04-29T17:27:18.162Z,61.80
2018-04-29T17:32:21.825Z,57.80
2018-04-29T17:37:25.054Z,57.80
2018-04-29T17:42:28.291Z,54.50
2018-04-29T17:47:31.536Z,54.20
2018-04-29T17:52:34.877Z,53.50
2018-04-29T17:57:38.128Z,54.70
2018-04-29T18:02:41.730Z,54.90
2018-04-29T18:07:45.439Z,54.90
2018-04-29T18:12:48.690Z,54.90
2018-04-29T18:17:51.933Z,55.60
2018-04-29T18:22:55.141Z,55.90
2018-04-29T18:27:58.453Z,56.40
2018-04-29T18:33:01.725Z,55.80
2018-04-29T18:38:05.217Z,55.30
2018-04-29T18:43:08.598Z,54.80
2018-04-29T18:48:13.102Z,55.80
2018-04-29T18:53:16.556Z,55.80
2018-04-29T18:58:20.471Z,55.50
2018-04-29T19:03:24.112Z,55.90
2018-04-29T19:08:27.600Z,55.80
2018-04-29T21:41:09.394Z,54.90
2018-04-29T21:46:13.332Z,59.50
2018-04-29T21:51:16.824Z,59.50
2018-04-29T21:56:20.834Z,58.60
2018-04-29T22:01:24.255Z,58.60
2018-04-29T22:06:27.943Z,59.20
2018-04-29T22:11:31.158Z,59.20
2018-04-29T22:16:34.389Z,59.00
2018-04-29T22:21:38.087Z,59.00
2018-04-29T22:26:41.702Z,59.00
2018-04-29T22:31:45.014Z,58.60
2018-04-29T22:36:48.264Z,58.10
2018-04-29T22:41:51.498Z,57.70
2018-04-29T22:46:54.706Z,57.80
2018-04-29T22:51:57.930Z,59.70
2018-04-29T22:57:01.462Z,61.10
2018-04-29T23:02:05.095Z,60.90
2018-04-29T23:07:08.376Z,60.90
2018-04-29T23:12:12.020Z,59.80
2018-04-29T23:17:15.294Z,59.80
2018-04-29T23:22:18.518Z,59.40
2018-04-29T23:27:22.122Z,62.80
2018-04-29T23:32:25.806Z,65.50
2018-04-29T23:37:29.035Z,65.50
2018-04-29T23:42:32.355Z,71.10
2018-04-29T23:47:35.982Z,77.20
2018-04-29T23:52:39.266Z,77.20
2018-04-29T23:57:42.515Z,80.00
